createdAt,value
2022-09-06T00:00:20.897Z,1.17
2022-09-06T00:02:49.110Z,0.77
2022-09-06T00:05:17.473Z,4.78
2022-09-06T00:07:45.754Z,2.55
2022-09-06T00:10:13.939Z,3.33
2022-09-06T00:12:42.264Z,2.40
2022-09-06T00:15:11.260Z,1.90
2022-09-06T00:17:40.915Z,1.98
2022-09-06T00:20:10.333Z,3.42
2022-09-06T00:22:39.138Z,1.63
2022-09-06T00:25:08.241Z,1.05
2022-09-06T00:27:36.694Z,3.60
2022-09-06T00:30:05.649Z,4.38
2022-09-06T00:32:34.325Z,1.27
2022-09-06T00:35:03.950Z,0.75
2022-09-06T00:37:32.142Z,4.43
2022-09-06T00:40:00.499Z,2.40
2022-09-06T00:42:28.845Z,1.15
2022-09-06T00:44:57.265Z,1.52
2022-09-06T00:47:27.241Z,2.05
2022-09-06T00:50:00.260Z,2.08
2022-09-06T00:52:31.671Z,2.47
2022-09-06T00:55:00.717Z,3.70
2022-09-06T00:57:32.144Z,1.83
2022-09-06T01:00:01.751Z,1.63
2022-09-06T01:02:30.039Z,4.10
2022-09-06T01:04:58.666Z,2.03
2022-09-06T01:08:03.216Z,1.73
2022-09-06T01:10:44.264Z,3.13
2022-09-06T01:13:27.764Z,2.28
2022-09-06T01:16:03.708Z,1.73
2022-09-06T01:18:43.632Z,2.15
2022-09-06T01:21:25.009Z,2.90
2022-09-06T01:24:30.955Z,2.60
2022-09-06T01:27:31.500Z,2.75
2022-09-06T01:30:06.590Z,3.00
2022-09-06T01:32:43.283Z,2.35
2022-09-06T01:35:28.844Z,4.85
2022-09-06T01:37:57.998Z,4.18
2022-09-06T01:40:27.780Z,2.08
2022-09-06T01:42:58.084Z,4.03
2022-09-06T01:45:38.941Z,3.17
2022-09-06T01:48:16.506Z,2.88
2022-09-06T01:51:03.991Z,4.00
2022-09-06T01:53:50.163Z,3.58
2022-09-06T01:56:31.289Z,4.63
2022-09-06T01:59:19.807Z,6.25
2022-09-06T02:02:00.590Z,3.58
2022-09-06T02:04:32.794Z,4.25
2022-09-06T02:07:04.277Z,3.95
2022-09-06T02:09:38.443Z,4.20
2022-09-06T02:12:08.194Z,5.07
2022-09-06T02:14:40.256Z,5.53
2022-09-06T02:17:13.802Z,5.68
2022-09-06T02:19:49.361Z,8.88
2022-09-06T02:22:21.059Z,5.82
2022-09-06T02:24:52.257Z,7.32
2022-09-06T02:27:20.863Z,5.47
2022-09-06T02:29:49.132Z,5.63
2022-09-06T02:32:21.964Z,7.95
2022-09-06T02:34:53.032Z,6.57
2022-09-06T02:37:21.787Z,6.53
2022-09-06T02:39:49.982Z,6.03
2022-09-06T02:42:18.364Z,5.43
2022-09-06T02:44:46.639Z,8.60
2022-09-06T02:47:14.780Z,6.03
2022-09-06T02:49:44.465Z,5.70
2022-09-06T02:52:13.033Z,7.53
2022-09-06T02:54:41.207Z,6.82
2022-09-06T02:57:09.419Z,7.43
2022-09-06T02:59:37.761Z,7.40
2022-09-06T03:02:06.034Z,7.65
2022-09-06T03:04:34.281Z,7.47
2022-09-06T03:07:03.812Z,9.18
2022-09-06T03:09:31.982Z,6.97
2022-09-06T03:12:00.124Z,7.97
2022-09-06T03:14:28.513Z,8.50
2022-09-06T03:16:56.947Z,7.85
2022-09-06T03:19:25.230Z,8.55
2022-09-06T03:21:53.439Z,9.90
2022-09-06T03:24:22.998Z,9.45
2022-09-06T03:26:52.157Z,12.13
2022-09-06T03:29:20.368Z,10.05
2022-09-06T03:31:48.595Z,10.73
2022-09-06T03:34:16.805Z,12.07
2022-09-06T03:36:45.057Z,12.10
2022-09-06T03:39:13.356Z,15.18
2022-09-06T03:41:42.969Z,11.55
2022-09-06T03:44:11.237Z,13.55
2022-09-06T03:46:39.649Z,13.07
2022-09-06T03:49:10.299Z,15.00
2022-09-06T03:51:38.602Z,13.90
2022-09-06T03:54:07.294Z,14.85
2022-09-06T03:56:35.563Z,15.43
2022-09-06T03:59:05.115Z,15.48
2022-09-06T04:01:33.393Z,14.70
2022-09-06T04:04:02.284Z,15.68
2022-09-06T04:06:30.703Z,16.77
2022-09-06T04:08:58.909Z,15.07
2022-09-06T04:11:27.162Z,13.23
2022-09-06T04:13:55.356Z,13.23
2022-09-06T04:16:25.041Z,17.90
2022-09-06T04:18:53.696Z,14.63
2022-09-06T04:21:21.860Z,15.85
2022-09-06T04:23:50.490Z,17.35
2022-09-06T04:26:18.771Z,15.35
2022-09-06T04:28:47.174Z,19.02
2022-09-06T04:31:15.639Z,22.02
2022-09-06T04:33:45.201Z,18.00
2022-09-06T04:36:13.891Z,18.98
2022-09-06T04:38:43.716Z,21.48
2022-09-06T04:41:13.347Z,24.60
2022-09-06T04:43:41.499Z,20.42
2022-09-06T04:46:19.010Z,24.08
2022-09-06T04:48:48.805Z,22.25
2022-09-06T04:51:17.057Z,54.85
2022-09-06T04:53:45.542Z,29.95
2022-09-06T04:56:17.963Z,30.60
2022-09-06T04:58:47.877Z,30.95
2022-09-06T05:01:16.591Z,26.02
2022-09-06T05:03:44.911Z,28.48
2022-09-06T05:06:20.787Z,28.00
2022-09-06T05:08:51.759Z,30.70
2022-09-06T05:11:20.037Z,33.45
2022-09-06T05:13:50.188Z,32.72
2022-09-06T05:16:18.597Z,31.52
2022-09-06T05:18:46.874Z,38.60
2022-09-06T05:21:16.954Z,40.42
2022-09-06T05:23:45.290Z,40.95
2022-09-06T05:26:13.483Z,36.25
2022-09-06T05:28:41.750Z,37.05
2022-09-06T05:31:11.938Z,45.53
2022-09-06T05:33:40.729Z,37.45
2022-09-06T05:36:09.665Z,40.90
2022-09-06T05:38:39.518Z,43.30
2022-09-06T05:41:07.692Z,44.72
2022-09-06T05:43:35.951Z,45.25
2022-09-06T05:46:05.024Z,44.75
2022-09-06T05:48:36.821Z,39.97
2022-09-06T05:51:08.088Z,38.75
2022-09-06T05:53:38.826Z,38.35
2022-09-06T05:56:08.098Z,37.40
2022-09-06T05:58:37.934Z,34.13
2022-09-06T06:01:08.075Z,32.78
2022-09-06T06:03:36.351Z,35.65
2022-09-06T06:06:05.757Z,33.15
2022-09-06T06:08:33.984Z,33.70
2022-09-06T06:11:03.970Z,30.10
2022-09-06T06:13:35.015Z,25.75
2022-09-06T06:16:04.346Z,23.38
2022-09-06T06:18:32.938Z,23.42
2022-09-06T06:21:15.120Z,19.75
2022-09-06T06:23:44.810Z,21.17
2022-09-06T06:26:14.933Z,18.35
2022-09-06T06:28:43.336Z,18.08
2022-09-06T06:31:13.198Z,15.75
2022-09-06T06:33:41.811Z,16.85
2022-09-06T06:36:21.960Z,17.23
2022-09-06T06:38:51.748Z,15.80
2022-09-06T06:41:24.052Z,14.02
2022-09-06T06:43:56.153Z,11.27
2022-09-06T06:46:26.926Z,7.53
2022-09-06T06:48:55.703Z,7.78
2022-09-06T06:51:25.722Z,8.50
2022-09-06T06:53:54.148Z,6.55
2022-09-06T06:56:25.360Z,5.70
2022-09-06T06:58:55.507Z,6.20
2022-09-06T07:01:24.947Z,8.63
2022-09-06T07:03:54.558Z,4.78
2022-09-06T07:09:12.330Z,5.07
2022-09-06T07:11:42.124Z,5.32
2022-09-06T07:14:10.424Z,5.53
2022-09-06T07:16:38.722Z,2.55
2022-09-06T07:19:06.979Z,5.63
2022-09-06T07:24:08.374Z,6.53
2022-09-06T07:26:39.929Z,5.25
2022-09-06T07:29:10.115Z,3.75
2022-09-06T07:34:28.522Z,2.90
2022-09-06T07:36:57.057Z,4.70
2022-09-06T07:39:25.406Z,8.73
2022-09-06T07:41:53.767Z,10.88
2022-09-06T07:44:23.336Z,3.88
2022-09-06T07:46:52.675Z,1.85
2022-09-06T07:49:22.230Z,4.15
2022-09-06T07:51:50.424Z,3.55
2022-09-06T07:54:34.081Z,4.80
2022-09-06T07:57:02.299Z,2.05
2022-09-06T07:59:31.871Z,8.15
2022-09-06T08:02:00.248Z,2.25
2022-09-06T08:04:28.587Z,3.97
2022-09-06T08:09:45.646Z,2.95
2022-09-06T08:12:13.871Z,6.97
2022-09-06T08:14:43.614Z,4.97
2022-09-06T08:17:11.777Z,3.72
2022-09-06T08:19:40.006Z,2.97
2022-09-06T08:22:08.211Z,2.47
2022-09-06T08:24:36.750Z,2.85
2022-09-06T08:27:07.773Z,4.00
2022-09-06T08:29:36.191Z,5.90
2022-09-06T08:32:05.952Z,2.88
2022-09-06T08:34:34.173Z,12.38
2022-09-06T08:37:03.563Z,2.47
2022-09-06T08:39:31.831Z,5.80
2022-09-06T08:42:04.078Z,7.07
2022-09-06T08:47:25.915Z,8.45
2022-09-06T08:49:57.228Z,5.38
2022-09-06T08:52:49.564Z,4.18
2022-09-06T08:55:36.428Z,6.93
2022-09-06T08:58:21.333Z,2.78
2022-09-06T09:00:53.447Z,9.38
2022-09-06T09:03:26.516Z,4.60
2022-09-06T09:05:55.646Z,4.95
2022-09-06T09:08:28.535Z,5.90
2022-09-06T09:11:03.127Z,4.43
2022-09-06T09:13:36.022Z,5.97
2022-09-06T09:16:05.179Z,13.82
2022-09-06T09:18:38.532Z,2.65
2022-09-06T09:21:07.122Z,5.13
2022-09-06T09:23:35.318Z,3.75
2022-09-06T09:26:06.951Z,7.43
2022-09-06T09:28:35.845Z,7.55
2022-09-06T09:31:05.999Z,6.13
2022-09-06T09:33:38.931Z,9.10
2022-09-06T09:36:11.055Z,5.85
2022-09-06T09:38:44.109Z,3.53
2022-09-06T09:41:25.320Z,5.63
2022-09-06T09:44:02.389Z,9.52
2022-09-06T09:46:34.627Z,5.25
2022-09-06T09:49:15.792Z,1.67
2022-09-06T09:51:45.656Z,11.23
2022-09-06T09:54:15.666Z,2.08
2022-09-06T09:56:48.464Z,3.80
2022-09-06T09:59:27.037Z,4.88
2022-09-06T10:01:57.571Z,9.35
2022-09-06T10:04:45.214Z,11.88
2022-09-06T10:07:16.264Z,3.58
2022-09-06T10:09:46.515Z,1.70
2022-09-06T10:12:20.175Z,2.80
2022-09-06T10:14:50.220Z,2.13
2022-09-06T10:17:28.987Z,1.35
2022-09-06T10:20:00.893Z,3.42
2022-09-06T10:22:31.474Z,1.30
2022-09-06T10:25:42.192Z,2.13
2022-09-06T10:28:32.255Z,1.27
2022-09-06T10:31:26.879Z,3.13
2022-09-06T10:34:05.986Z,1.35
2022-09-06T10:36:38.129Z,1.75
2022-09-06T10:39:21.585Z,2.47
2022-09-06T10:42:02.618Z,2.42
2022-09-06T10:44:51.306Z,2.17
2022-09-06T10:47:20.312Z,3.38
2022-09-06T10:49:54.305Z,1.80
2022-09-06T10:52:29.119Z,3.00
2022-09-06T10:55:03.957Z,4.57
2022-09-06T11:00:29.295Z,1.75
2022-09-06T11:05:56.553Z,2.28
2022-09-06T11:08:47.852Z,1.27
2022-09-06T11:11:21.399Z,3.22
2022-09-06T11:13:49.937Z,3.38
2022-09-06T11:16:22.978Z,4.07
2022-09-06T11:18:57.142Z,4.07
2022-09-06T11:22:04.388Z,4.75
2022-09-06T11:24:47.218Z,4.70
2022-09-06T11:27:23.051Z,1.65
2022-09-06T11:29:56.454Z,4.22
2022-09-06T11:32:35.468Z,1.52
2022-09-06T11:35:07.319Z,2.35
2022-09-06T11:37:39.552Z,1.45
2022-09-06T11:40:31.868Z,2.63
2022-09-06T11:43:12.561Z,1.33
2022-09-06T11:45:46.150Z,1.08
2022-09-06T11:48:51.082Z,0.95
2022-09-06T11:51:37.568Z,2.28
2022-09-06T11:54:22.867Z,2.13
2022-09-06T11:56:58.404Z,0.82
2022-09-06T11:59:42.671Z,1.20
2022-09-06T12:02:33.590Z,8.35
2022-09-06T12:05:30.358Z,11.52
2022-09-06T12:08:34.349Z,1.00
2022-09-06T12:11:06.046Z,3.00
2022-09-06T12:13:40.771Z,1.23
2022-09-06T12:16:11.721Z,10.85
2022-09-06T12:18:57.597Z,1.08
2022-09-06T12:21:52.361Z,4.00
2022-09-06T12:24:52.508Z,1.63
2022-09-06T12:27:22.729Z,2.05
2022-09-06T12:29:59.394Z,0.98
2022-09-06T12:32:37.212Z,10.52
2022-09-06T12:38:02.708Z,1.58
2022-09-06T12:40:35.318Z,1.73
2022-09-06T12:43:05.439Z,1.13
2022-09-06T12:45:35.191Z,4.30
2022-09-06T12:48:09.754Z,8.88
2022-09-06T12:50:38.510Z,8.70
2022-09-06T12:53:23.619Z,14.65
2022-09-06T12:56:05.171Z,2.38
2022-09-06T12:58:34.207Z,3.08
2022-09-06T13:01:11.008Z,2.15
2022-09-06T13:03:43.479Z,1.38
2022-09-06T13:06:21.195Z,2.45
2022-09-06T13:08:55.669Z,0.43
2022-09-06T13:11:26.782Z,1.13
2022-09-06T13:13:56.548Z,2.15
2022-09-06T13:16:27.691Z,0.90
2022-09-06T13:18:56.623Z,2.97
2022-09-06T13:21:32.791Z,1.95
2022-09-06T13:24:04.050Z,3.78
2022-09-06T13:26:37.814Z,3.67
2022-09-06T13:29:22.451Z,3.63
2022-09-06T13:31:53.395Z,4.22
2022-09-06T13:34:23.552Z,1.58
2022-09-06T13:36:52.992Z,1.10
2022-09-06T13:39:32.762Z,3.17
2022-09-06T13:42:07.541Z,1.95
2022-09-06T13:44:36.818Z,1.85
2022-09-06T13:47:07.089Z,2.08
2022-09-06T13:49:35.342Z,0.93
2022-09-06T13:52:05.203Z,0.73
2022-09-06T13:54:34.485Z,1.50
2022-09-06T13:57:03.311Z,1.92
2022-09-06T13:59:32.638Z,2.83
2022-09-06T14:02:03.298Z,2.28
2022-09-06T14:04:33.189Z,0.38
2022-09-06T14:07:01.750Z,3.05
2022-09-06T14:09:30.373Z,2.33
2022-09-06T14:11:58.728Z,2.25
2022-09-06T14:14:27.094Z,2.67
2022-09-06T14:16:55.321Z,1.23
2022-09-06T14:19:24.351Z,1.15
2022-09-06T14:21:54.002Z,2.60
2022-09-06T14:24:22.281Z,2.80
2022-09-06T14:26:50.608Z,1.92
2022-09-06T14:29:19.094Z,4.03
2022-09-06T14:31:48.427Z,4.90
2022-09-06T14:34:17.040Z,3.55
2022-09-06T14:36:45.373Z,3.42
2022-09-06T14:39:14.954Z,1.45
2022-09-06T14:41:43.175Z,3.05
2022-09-06T14:44:11.439Z,1.13
2022-09-06T14:46:39.771Z,1.42
2022-09-06T14:49:10.141Z,4.93
2022-09-06T14:51:39.949Z,1.48
2022-09-06T14:54:10.346Z,2.67
2022-09-06T14:56:41.996Z,3.30
2022-09-06T14:59:10.608Z,1.75
2022-09-06T15:01:39.936Z,2.05
2022-09-06T15:04:09.961Z,2.45
2022-09-06T15:06:40.319Z,0.63
2022-09-06T15:09:11.230Z,1.65
2022-09-06T15:11:43.238Z,2.35
2022-09-06T15:14:16.303Z,2.45
2022-09-06T15:16:44.582Z,0.98
2022-09-06T15:19:12.995Z,2.35
2022-09-06T15:21:42.029Z,1.13
2022-09-06T15:24:12.238Z,11.88
2022-09-06T15:26:43.001Z,1.73
2022-09-06T15:29:12.372Z,2.67
2022-09-06T15:31:41.694Z,4.40
2022-09-06T15:34:11.775Z,4.00
2022-09-06T15:36:39.993Z,2.05
2022-09-06T15:39:08.307Z,2.58
2022-09-06T15:41:39.785Z,1.48
2022-09-06T15:44:11.838Z,2.92
2022-09-06T15:46:46.013Z,2.63
2022-09-06T15:49:16.870Z,1.52
2022-09-06T15:51:45.956Z,3.95
2022-09-06T15:54:15.580Z,4.93
2022-09-06T15:56:43.197Z,3.15
2022-09-06T15:59:13.702Z,4.40
2022-09-06T16:01:42.043Z,4.57
2022-09-06T16:04:10.406Z,1.83
2022-09-06T16:06:42.713Z,1.42
2022-09-06T16:09:14.112Z,3.95
2022-09-06T16:11:42.829Z,1.08
2022-09-06T16:14:14.344Z,4.97
2022-09-06T16:16:43.398Z,4.10
2022-09-06T16:19:13.432Z,1.58
2022-09-06T16:21:43.766Z,4.30
2022-09-06T16:24:13.598Z,3.63
2022-09-06T16:26:44.003Z,5.05
2022-09-06T16:29:15.608Z,2.45
2022-09-06T16:31:44.115Z,5.75
2022-09-06T16:34:13.473Z,4.13
2022-09-06T16:36:43.344Z,2.50
2022-09-06T16:39:11.876Z,5.80
2022-09-06T16:41:42.871Z,8.35
2022-09-06T16:44:16.333Z,5.10
2022-09-06T16:46:46.441Z,2.58
2022-09-06T16:49:16.804Z,4.65
2022-09-06T16:51:45.708Z,4.53
2022-09-06T16:54:14.630Z,8.52
2022-09-06T16:56:43.198Z,5.68
2022-09-06T16:59:15.209Z,4.15
2022-09-06T17:01:44.560Z,2.72
2022-09-06T17:04:14.053Z,1.25
2022-09-06T17:06:45.882Z,2.17
2022-09-06T17:09:15.880Z,3.90
2022-09-06T17:11:44.118Z,5.13
2022-09-06T17:14:13.957Z,1.00
2022-09-06T17:17:00.351Z,4.68
2022-09-06T17:19:29.731Z,8.20
2022-09-06T17:21:58.086Z,2.63
2022-09-06T17:24:27.405Z,9.82
2022-09-06T17:26:55.989Z,5.63
2022-09-06T17:29:26.638Z,6.00
2022-09-06T17:31:56.623Z,2.97
2022-09-06T17:34:24.903Z,1.98
2022-09-06T17:36:53.748Z,4.78
2022-09-06T17:39:22.577Z,4.45
2022-09-06T17:41:53.369Z,3.47
2022-09-06T17:44:24.588Z,5.10
2022-09-06T17:49:43.355Z,3.80
2022-09-06T17:52:11.916Z,5.40
2022-09-06T17:54:40.185Z,2.67
2022-09-06T17:57:08.423Z,9.80
2022-09-06T17:59:36.811Z,3.67
2022-09-06T18:02:06.763Z,4.72
2022-09-06T18:04:35.192Z,6.85
2022-09-06T18:07:03.787Z,8.88
2022-09-06T18:09:32.065Z,7.82
2022-09-06T18:12:00.309Z,7.43
2022-09-06T18:14:29.226Z,7.70
2022-09-06T18:16:57.530Z,7.28
2022-09-06T18:19:27.549Z,6.95
2022-09-06T18:21:57.261Z,4.32
2022-09-06T18:24:25.760Z,5.95
2022-09-06T18:26:54.161Z,4.72
2022-09-06T18:29:22.706Z,6.40
2022-09-06T18:31:53.634Z,7.07
2022-09-06T18:34:22.436Z,8.13
2022-09-06T18:36:53.021Z,6.45
2022-09-06T18:39:21.235Z,11.38
2022-09-06T18:42:01.539Z,8.68
2022-09-06T18:44:32.338Z,6.82
2022-09-06T18:47:02.154Z,13.85
2022-09-06T18:49:32.413Z,7.68
2022-09-06T18:52:02.648Z,5.90
2022-09-06T18:54:31.139Z,12.15
2022-09-06T18:57:00.005Z,9.88
2022-09-06T18:59:28.372Z,12.25
2022-09-06T19:01:56.910Z,7.40
2022-09-06T19:04:25.700Z,10.60
2022-09-06T19:06:53.940Z,8.75
2022-09-06T19:09:24.004Z,14.80
2022-09-06T19:11:53.170Z,8.15
2022-09-06T19:14:22.032Z,10.15
2022-09-06T19:16:51.752Z,9.27
2022-09-06T19:19:21.397Z,10.07
2022-09-06T19:21:50.745Z,7.50
2022-09-06T19:24:22.533Z,10.95
2022-09-06T19:26:52.914Z,8.55
2022-09-06T19:29:21.267Z,19.58
2022-09-06T19:31:49.688Z,11.32
2022-09-06T19:34:18.166Z,12.77
2022-09-06T19:36:46.620Z,10.45
2022-09-06T19:39:16.986Z,18.98
2022-09-06T19:41:47.426Z,16.58
2022-09-06T19:44:17.854Z,25.25
2022-09-06T19:46:47.124Z,20.65
2022-09-06T19:49:16.855Z,22.13
2022-09-06T19:51:46.638Z,12.93
2022-09-06T19:54:15.974Z,9.32
2022-09-06T19:56:44.838Z,6.00
2022-09-06T19:59:14.733Z,6.45
2022-09-06T20:01:46.168Z,5.25
2022-09-06T20:04:15.870Z,7.90
2022-09-06T20:06:44.291Z,3.65
2022-09-06T20:09:12.883Z,5.93
2022-09-06T20:11:42.530Z,8.40
2022-09-06T20:14:11.567Z,6.68
2022-09-06T20:16:42.225Z,12.25
2022-09-06T20:19:14.525Z,7.55
2022-09-06T20:21:43.105Z,4.75
2022-09-06T20:24:11.554Z,8.68
2022-09-06T20:26:40.374Z,6.90
2022-09-06T20:29:08.717Z,7.97
2022-09-06T20:31:38.276Z,4.25
2022-09-06T20:34:07.800Z,2.40
2022-09-06T20:36:37.864Z,3.55
2022-09-06T20:39:06.106Z,4.20
2022-09-06T20:41:34.953Z,5.63
2022-09-06T20:44:03.731Z,2.58
2022-09-06T20:46:35.245Z,4.80
2022-09-06T20:49:05.120Z,7.32
2022-09-06T20:51:34.856Z,4.13
2022-09-06T20:54:06.171Z,6.47
2022-09-06T20:56:36.040Z,6.07
2022-09-06T20:59:06.555Z,7.28
2022-09-06T21:01:37.502Z,7.10
2022-09-06T21:04:07.638Z,6.97
2022-09-06T21:06:37.896Z,8.65
2022-09-06T21:09:09.480Z,7.72
2022-09-06T21:11:38.254Z,9.63
2022-09-06T21:14:07.610Z,7.90
2022-09-06T21:16:36.671Z,5.03
2022-09-06T21:19:06.802Z,6.28
2022-09-06T21:21:35.898Z,13.48
2022-09-06T21:24:06.074Z,8.57
2022-09-06T21:26:36.153Z,5.15
2022-09-06T21:29:04.714Z,3.72
2022-09-06T21:31:36.130Z,10.13
2022-09-06T21:34:06.815Z,6.90
2022-09-06T21:36:37.217Z,8.35
2022-09-06T21:39:09.525Z,3.25
2022-09-06T21:41:40.569Z,6.20
2022-09-06T21:44:10.433Z,3.15
2022-09-06T21:46:39.775Z,3.50
2022-09-06T21:49:09.971Z,4.93
2022-09-06T21:51:38.766Z,2.88
2022-09-06T21:54:07.329Z,1.88
2022-09-06T21:56:37.051Z,5.45
2022-09-06T21:59:07.267Z,8.90
2022-09-06T22:01:37.194Z,7.97
2022-09-06T22:04:06.472Z,4.70
2022-09-06T22:06:36.025Z,6.93
2022-09-06T22:09:10.925Z,11.55
2022-09-06T22:11:41.174Z,8.48
2022-09-06T22:14:12.839Z,12.10
2022-09-06T22:16:42.711Z,13.20
2022-09-06T22:19:12.201Z,10.82
2022-09-06T22:21:59.138Z,8.50
2022-09-06T22:24:27.633Z,7.82
2022-09-06T22:26:55.944Z,7.18
2022-09-06T22:29:25.889Z,10.05
2022-09-06T22:31:54.856Z,12.23
2022-09-06T22:34:23.140Z,5.15
2022-09-06T22:36:51.530Z,16.45
2022-09-06T22:39:19.709Z,12.68
2022-09-06T22:41:47.921Z,14.57
2022-09-06T22:44:16.317Z,9.85
2022-09-06T22:46:46.202Z,20.65
2022-09-06T22:49:14.780Z,14.48
2022-09-06T22:51:42.894Z,14.40
2022-09-06T22:54:11.343Z,14.88
2022-09-06T22:56:39.499Z,17.23
2022-09-06T22:59:08.156Z,23.75
2022-09-06T23:01:39.247Z,16.42
2022-09-06T23:04:09.647Z,12.32
2022-09-06T23:06:38.568Z,25.13
2022-09-06T23:09:07.574Z,18.92
2022-09-06T23:11:35.817Z,13.52
2022-09-06T23:14:04.939Z,17.13
2022-09-06T23:16:33.350Z,18.63
2022-09-06T23:19:01.670Z,15.23
2022-09-06T23:21:31.233Z,15.70
2022-09-06T23:24:00.138Z,15.45
2022-09-06T23:26:30.867Z,14.35
2022-09-06T23:28:59.877Z,12.93
2022-09-06T23:31:31.390Z,15.00
2022-09-06T23:34:01.321Z,20.98
2022-09-06T23:36:31.577Z,10.00
2022-09-06T23:39:01.782Z,16.50
2022-09-06T23:41:30.238Z,15.88
2022-09-06T23:43:58.460Z,18.27
2022-09-06T23:46:27.034Z,21.92
2022-09-06T23:48:55.420Z,21.83
2022-09-06T23:51:23.613Z,23.55
2022-09-06T23:53:53.222Z,27.55
2022-09-06T23:56:22.421Z,20.58
2022-09-06T23:58:50.701Z,20.30
